sensor_id;sensor_type;location;lat;lon;timestamp;pressure;altitude;pressure_sealevel;temperature;humidity
30182;BME280;16990;49.056;9.240;2022-08-26T00:00:51;98393.53;;;20.52;70.32
30182;BME280;16990;49.056;9.240;2022-08-26T00:03:40;98398.28;;;20.47;70.67
30182;BME280;16990;49.056;9.240;2022-08-26T00:06:27;98384.19;;;20.58;69.91
30182;BME280;16990;49.056;9.240;2022-08-26T00:09:14;98387.66;;;20.36;71.01
30182;BME280;16990;49.056;9.240;2022-08-26T00:12:02;98380.25;;;20.28;71.74
30182;BME280;16990;49.056;9.240;2022-08-26T00:14:49;98388.06;;;20.30;71.13
30182;BME280;16990;49.056;9.240;2022-08-26T00:17:36;98386.16;;;20.30;71.04
30182;BME280;16990;49.056;9.240;2022-08-26T00:20:28;98398.63;;;20.31;70.85
30182;BME280;16990;49.056;9.240;2022-08-26T00:23:15;98401.47;;;20.26;71.43
30182;BME280;16990;49.056;9.240;2022-08-26T00:26:03;98397.13;;;20.25;71.73
30182;BME280;16990;49.056;9.240;2022-08-26T00:28:51;98393.69;;;20.33;71.35
30182;BME280;16990;49.056;9.240;2022-08-26T00:31:38;98391.69;;;20.25;71.84
30182;BME280;16990;49.056;9.240;2022-08-26T00:34:25;98389.72;;;20.17;72.27
30182;BME280;16990;49.056;9.240;2022-08-26T00:37:13;98401.66;;;20.16;72.32
30182;BME280;16990;49.056;9.240;2022-08-26T00:40:01;98395.75;;;20.14;72.58
30182;BME280;16990;49.056;9.240;2022-08-26T00:42:48;98399.56;;;20.13;72.36
30182;BME280;16990;49.056;9.240;2022-08-26T00:45:41;98403.41;;;20.12;72.51
30182;BME280;16990;49.056;9.240;2022-08-26T00:48:29;98398.47;;;20.14;72.51
30182;BME280;16990;49.056;9.240;2022-08-26T00:51:22;98392.66;;;20.07;72.57
30182;BME280;16990;49.056;9.240;2022-08-26T00:54:12;98402.28;;;19.99;73.01
30182;BME280;16990;49.056;9.240;2022-08-26T00:57:01;98391.75;;;19.97;73.14
30182;BME280;16990;49.056;9.240;2022-08-26T00:59:55;98402.22;;;19.90;73.97
30182;BME280;16990;49.056;9.240;2022-08-26T01:02:44;98394.09;;;19.90;73.80
30182;BME280;16990;49.056;9.240;2022-08-26T01:05:31;98384.75;;;19.83;74.33
30182;BME280;16990;49.056;9.240;2022-08-26T01:08:18;98398.78;;;19.85;74.22
30182;BME280;16990;49.056;9.240;2022-08-26T01:11:07;98390.88;;;19.88;74.80
30182;BME280;16990;49.056;9.240;2022-08-26T01:13:56;98390.88;;;19.88;75.67
30182;BME280;16990;49.056;9.240;2022-08-26T01:16:44;98388.66;;;19.90;75.61
30182;BME280;16990;49.056;9.240;2022-08-26T01:19:35;98389.97;;;19.93;75.16
30182;BME280;16990;49.056;9.240;2022-08-26T01:22:26;98386.72;;;20.18;73.97
30182;BME280;16990;49.056;9.240;2022-08-26T01:25:18;98384.31;;;19.89;74.87
30182;BME280;16990;49.056;9.240;2022-08-26T01:28:08;98388.78;;;19.71;75.75
30182;BME280;16990;49.056;9.240;2022-08-26T01:30:56;98386.75;;;19.77;75.25
30182;BME280;16990;49.056;9.240;2022-08-26T01:33:54;98379.41;;;19.77;75.78
30182;BME280;16990;49.056;9.240;2022-08-26T01:36:45;98388.66;;;19.76;75.75
30182;BME280;16990;49.056;9.240;2022-08-26T01:39:34;98385.16;;;19.76;76.29
30182;BME280;16990;49.056;9.240;2022-08-26T01:42:24;98389.47;;;19.77;75.53
30182;BME280;16990;49.056;9.240;2022-08-26T01:45:15;98384.75;;;19.69;76.07
30182;BME280;16990;49.056;9.240;2022-08-26T01:48:07;98396.19;;;19.66;76.09
30182;BME280;16990;49.056;9.240;2022-08-26T01:50:56;98396.88;;;19.58;76.41
30182;BME280;16990;49.056;9.240;2022-08-26T01:53:44;98394.84;;;19.63;76.10
30182;BME280;16990;49.056;9.240;2022-08-26T01:56:33;98405.00;;;19.58;76.76
30182;BME280;16990;49.056;9.240;2022-08-26T01:59:23;98391.84;;;19.51;77.08
30182;BME280;16990;49.056;9.240;2022-08-26T02:02:11;98386.84;;;19.44;77.45
30182;BME280;16990;49.056;9.240;2022-08-26T02:05:00;98398.75;;;19.43;77.19
30182;BME280;16990;49.056;9.240;2022-08-26T02:07:49;98401.19;;;19.45;77.40
30182;BME280;16990;49.056;9.240;2022-08-26T02:10:36;98392.97;;;19.50;77.04
30182;BME280;16990;49.056;9.240;2022-08-26T02:13:25;98401.78;;;19.55;77.33
30182;BME280;16990;49.056;9.240;2022-08-26T02:16:17;98403.41;;;19.57;76.81
30182;BME280;16990;49.056;9.240;2022-08-26T02:19:08;98403.91;;;19.59;76.91
30182;BME280;16990;49.056;9.240;2022-08-26T02:21:58;98406.13;;;19.57;77.26
30182;BME280;16990;49.056;9.240;2022-08-26T02:24:48;98404.31;;;19.52;77.28
30182;BME280;16990;49.056;9.240;2022-08-26T02:27:36;98405.22;;;19.47;77.86
30182;BME280;16990;49.056;9.240;2022-08-26T02:30:25;98404.31;;;19.52;77.14
30182;BME280;16990;49.056;9.240;2022-08-26T02:33:14;98407.00;;;19.38;77.46
30182;BME280;16990;49.056;9.240;2022-08-26T02:36:01;98405.00;;;19.30;77.95
30182;BME280;16990;49.056;9.240;2022-08-26T02:38:48;98397.94;;;19.29;77.82
30182;BME280;16990;49.056;9.240;2022-08-26T02:41:35;98397.94;;;19.29;78.11
30182;BME280;16990;49.056;9.240;2022-08-26T02:44:22;98404.56;;;19.23;78.59
30182;BME280;16990;49.056;9.240;2022-08-26T02:47:12;98393.13;;;19.26;78.16
30182;BME280;16990;49.056;9.240;2022-08-26T02:50:00;98399.16;;;19.23;78.53
30182;BME280;16990;49.056;9.240;2022-08-26T02:52:47;98388.31;;;19.23;78.75
30182;BME280;16990;49.056;9.240;2022-08-26T02:55:34;98389.91;;;19.24;78.14
30182;BME280;16990;49.056;9.240;2022-08-26T02:58:21;98388.78;;;19.25;78.21
30182;BME280;16990;49.056;9.240;2022-08-26T03:01:18;98389.41;;;19.22;77.79
30182;BME280;16990;49.056;9.240;2022-08-26T03:04:07;98397.53;;;19.22;77.72
30182;BME280;16990;49.056;9.240;2022-08-26T03:06:56;98393.75;;;19.23;77.60
30182;BME280;16990;49.056;9.240;2022-08-26T03:09:42;98397.03;;;19.20;78.16
30182;BME280;16990;49.056;9.240;2022-08-26T03:12:29;98382.16;;;19.17;78.44
30182;BME280;16990;49.056;9.240;2022-08-26T03:15:17;98384.69;;;19.13;78.81
30182;BME280;16990;49.056;9.240;2022-08-26T03:18:04;98390.91;;;19.14;78.72
30182;BME280;16990;49.056;9.240;2022-08-26T03:20:52;98389.59;;;19.11;78.94
30182;BME280;16990;49.056;9.240;2022-08-26T03:23:41;98388.06;;;19.05;80.00
30182;BME280;16990;49.056;9.240;2022-08-26T03:26:28;98388.25;;;18.95;80.79
30182;BME280;16990;49.056;9.240;2022-08-26T03:29:15;98389.31;;;18.80;80.76
30182;BME280;16990;49.056;9.240;2022-08-26T03:32:20;98384.75;;;18.76;80.83
30182;BME280;16990;49.056;9.240;2022-08-26T03:35:07;98373.69;;;18.72;81.27
30182;BME280;16990;49.056;9.240;2022-08-26T03:37:55;98384.19;;;18.79;80.52
30182;BME280;16990;49.056;9.240;2022-08-26T03:40:43;98382.13;;;18.70;81.44
30182;BME280;16990;49.056;9.240;2022-08-26T03:43:30;98377.88;;;18.64;82.93
30182;BME280;16990;49.056;9.240;2022-08-26T03:46:17;98374.56;;;18.67;83.01
30182;BME280;16990;49.056;9.240;2022-08-26T03:49:05;98367.78;;;18.70;83.37
30182;BME280;16990;49.056;9.240;2022-08-26T03:51:52;98376.72;;;18.70;83.19
30182;BME280;16990;49.056;9.240;2022-08-26T03:54:39;98374.50;;;18.73;82.93
30182;BME280;16990;49.056;9.240;2022-08-26T03:57:28;98371.28;;;18.70;83.30
30182;BME280;16990;49.056;9.240;2022-08-26T04:00:16;98381.31;;;18.70;83.24
30182;BME280;16990;49.056;9.240;2022-08-26T04:03:03;98374.28;;;18.69;83.33
30182;BME280;16990;49.056;9.240;2022-08-26T04:05:50;98387.69;;;18.60;83.54
30182;BME280;16990;49.056;9.240;2022-08-26T04:08:37;98382.66;;;18.54;83.98
30182;BME280;16990;49.056;9.240;2022-08-26T04:11:27;98383.47;;;18.54;83.13
30182;BME280;16990;49.056;9.240;2022-08-26T04:14:20;98378.78;;;18.41;83.23
30182;BME280;16990;49.056;9.240;2022-08-26T04:17:08;98379.38;;;18.38;83.47
30182;BME280;16990;49.056;9.240;2022-08-26T04:19:55;98385.16;;;18.31;83.93
30182;BME280;16990;49.056;9.240;2022-08-26T04:22:41;98387.66;;;18.27;84.25
30182;BME280;16990;49.056;9.240;2022-08-26T04:25:28;98378.94;;;18.31;83.93
30182;BME280;16990;49.056;9.240;2022-08-26T04:28:15;98383.31;;;18.26;84.52
30182;BME280;16990;49.056;9.240;2022-08-26T04:31:04;98382.88;;;18.19;85.25
30182;BME280;16990;49.056;9.240;2022-08-26T04:33:53;98376.97;;;18.17;85.62
30182;BME280;16990;49.056;9.240;2022-08-26T04:36:41;98375.06;;;18.18;85.57
30182;BME280;16990;49.056;9.240;2022-08-26T04:39:28;98387.47;;;18.19;85.66
30182;BME280;16990;49.056;9.240;2022-08-26T04:42:15;98383.47;;;18.16;85.27
30182;BME280;16990;49.056;9.240;2022-08-26T04:45:03;98385.09;;;18.17;85.33
30182;BME280;16990;49.056;9.240;2022-08-26T04:47:53;98371.50;;;18.22;85.09
30182;BME280;16990;49.056;9.240;2022-08-26T04:50:40;98376.31;;;18.25;84.81
30182;BME280;16990;49.056;9.240;2022-08-26T04:53:27;98379.81;;;18.26;85.23
30182;BME280;16990;49.056;9.240;2022-08-26T04:56:14;98381.13;;;18.28;85.40
30182;BME280;16990;49.056;9.240;2022-08-26T04:59:02;98385.59;;;18.38;84.93
30182;BME280;16990;49.056;9.240;2022-08-26T05:01:51;98382.06;;;18.38;85.80
30182;BME280;16990;49.056;9.240;2022-08-26T05:04:42;98380.41;;;18.42;87.27
30182;BME280;16990;49.056;9.240;2022-08-26T05:07:29;98384.94;;;18.46;87.73
30182;BME280;16990;49.056;9.240;2022-08-26T05:10:16;98387.03;;;18.49;87.98
30182;BME280;16990;49.056;9.240;2022-08-26T05:13:03;98383.47;;;18.54;87.87
30182;BME280;16990;49.056;9.240;2022-08-26T05:15:50;98386.38;;;18.58;87.29
30182;BME280;16990;49.056;9.240;2022-08-26T05:18:37;98393.09;;;18.60;86.38
30182;BME280;16990;49.056;9.240;2022-08-26T05:21:26;98394.91;;;18.65;85.65
30182;BME280;16990;49.056;9.240;2022-08-26T05:24:14;98394.34;;;18.68;85.40
30182;BME280;16990;49.056;9.240;2022-08-26T05:27:01;98395.06;;;18.74;84.98
30182;BME280;16990;49.056;9.240;2022-08-26T05:29:48;98400.75;;;18.72;85.07
30182;BME280;16990;49.056;9.240;2022-08-26T05:32:35;98394.22;;;18.78;85.09
30182;BME280;16990;49.056;9.240;2022-08-26T05:35:22;98399.25;;;18.85;84.92
30182;BME280;16990;49.056;9.240;2022-08-26T05:38:12;98395.06;;;18.92;84.62
30182;BME280;16990;49.056;9.240;2022-08-26T05:41:00;98397.91;;;19.01;84.35
30182;BME280;16990;49.056;9.240;2022-08-26T05:43:46;98399.63;;;19.11;84.37
30182;BME280;16990;49.056;9.240;2022-08-26T05:46:34;98413.19;;;19.25;83.89
30182;BME280;16990;49.056;9.240;2022-08-26T05:49:22;98404.56;;;19.37;83.74
30182;BME280;16990;49.056;9.240;2022-08-26T05:52:09;98404.78;;;19.40;83.44
30182;BME280;16990;49.056;9.240;2022-08-26T05:54:57;98409.00;;;19.46;83.32
30182;BME280;16990;49.056;9.240;2022-08-26T05:57:44;98404.00;;;19.53;83.04
30182;BME280;16990;49.056;9.240;2022-08-26T06:00:31;98411.44;;;19.62;82.78
30182;BME280;16990;49.056;9.240;2022-08-26T06:03:17;98415.69;;;19.68;82.58
30182;BME280;16990;49.056;9.240;2022-08-26T06:06:05;98419.13;;;19.73;82.22
30182;BME280;16990;49.056;9.240;2022-08-26T06:08:53;98414.88;;;19.81;81.95
30182;BME280;16990;49.056;9.240;2022-08-26T06:11:42;98425.53;;;19.91;81.35
30182;BME280;16990;49.056;9.240;2022-08-26T06:14:29;98419.91;;;20.02;80.90
30182;BME280;16990;49.056;9.240;2022-08-26T06:17:16;98423.72;;;20.01;81.13
30182;BME280;16990;49.056;9.240;2022-08-26T06:20:03;98431.75;;;20.06;81.52
30182;BME280;16990;49.056;9.240;2022-08-26T06:22:51;98426.53;;;20.09;81.47
30182;BME280;16990;49.056;9.240;2022-08-26T06:25:55;98439.38;;;20.17;81.18
30182;BME280;16990;49.056;9.240;2022-08-26T06:28:44;98446.81;;;20.26;80.51
30182;BME280;16990;49.056;9.240;2022-08-26T06:31:31;98436.94;;;20.30;80.44
30182;BME280;16990;49.056;9.240;2022-08-26T06:34:18;98438.03;;;20.43;80.06
30182;BME280;16990;49.056;9.240;2022-08-26T06:37:05;98439.38;;;20.54;79.31
30182;BME280;16990;49.056;9.240;2022-08-26T06:39:53;98434.63;;;20.73;78.45
30182;BME280;16990;49.056;9.240;2022-08-26T06:42:40;98434.41;;;20.84;77.73
30182;BME280;16990;49.056;9.240;2022-08-26T06:45:28;98434.78;;;20.91;77.65
30182;BME280;16990;49.056;9.240;2022-08-26T06:48:17;98439.19;;;21.09;77.47
30182;BME280;16990;49.056;9.240;2022-08-26T06:51:06;98437.34;;;21.18;77.73
30182;BME280;16990;49.056;9.240;2022-08-26T06:53:54;98433.75;;;21.32;77.54
30182;BME280;16990;49.056;9.240;2022-08-26T06:56:43;98437.50;;;21.44;77.49
30182;BME280;16990;49.056;9.240;2022-08-26T06:59:30;98432.63;;;21.55;77.47
30182;BME280;16990;49.056;9.240;2022-08-26T07:02:19;98434.75;;;21.76;76.53
30182;BME280;16990;49.056;9.240;2022-08-26T07:05:06;98437.91;;;22.09;75.46
30182;BME280;16990;49.056;9.240;2022-08-26T07:07:53;98443.66;;;22.07;75.96
30182;BME280;16990;49.056;9.240;2022-08-26T07:10:42;98428.97;;;22.17;74.74
30182;BME280;16990;49.056;9.240;2022-08-26T07:13:28;98436.41;;;22.34;74.46
30182;BME280;16990;49.056;9.240;2022-08-26T07:16:16;98434.16;;;22.45;73.96
30182;BME280;16990;49.056;9.240;2022-08-26T07:19:04;98441.84;;;22.51;73.23
30182;BME280;16990;49.056;9.240;2022-08-26T07:21:51;98445.72;;;22.68;72.28
30182;BME280;16990;49.056;9.240;2022-08-26T07:24:38;98444.44;;;22.83;72.02
30182;BME280;16990;49.056;9.240;2022-08-26T07:27:26;98432.91;;;22.77;72.62
30182;BME280;16990;49.056;9.240;2022-08-26T07:30:13;98433.03;;;22.89;72.31
30182;BME280;16990;49.056;9.240;2022-08-26T07:33:00;98432.56;;;23.05;71.58
30182;BME280;16990;49.056;9.240;2022-08-26T07:35:49;98431.09;;;23.16;70.95
30182;BME280;16990;49.056;9.240;2022-08-26T07:38:37;98442.75;;;23.43;70.04
30182;BME280;16990;49.056;9.240;2022-08-26T07:41:24;98440.50;;;23.45;69.74
30182;BME280;16990;49.056;9.240;2022-08-26T07:44:11;98440.25;;;23.67;68.59
30182;BME280;16990;49.056;9.240;2022-08-26T07:46:58;98442.97;;;23.67;68.81
30182;BME280;16990;49.056;9.240;2022-08-26T07:49:45;98435.41;;;23.82;68.75
30182;BME280;16990;49.056;9.240;2022-08-26T07:52:33;98434.00;;;24.05;67.53
30182;BME280;16990;49.056;9.240;2022-08-26T07:55:22;98440.97;;;24.24;66.96
30182;BME280;16990;49.056;9.240;2022-08-26T07:58:08;98444.53;;;24.45;66.12
30182;BME280;16990;49.056;9.240;2022-08-26T08:00:55;98438.69;;;24.55;65.35
30182;BME280;16990;49.056;9.240;2022-08-26T08:03:42;98439.47;;;24.77;64.97
30182;BME280;16990;49.056;9.240;2022-08-26T08:06:29;98441.75;;;25.08;63.29
30182;BME280;16990;49.056;9.240;2022-08-26T08:09:18;98439.59;;;25.14;63.21
30182;BME280;16990;49.056;9.240;2022-08-26T08:12:05;98435.91;;;25.31;63.33
30182;BME280;16990;49.056;9.240;2022-08-26T08:14:52;98448.41;;;25.53;61.79
30182;BME280;16990;49.056;9.240;2022-08-26T08:17:39;98440.69;;;25.67;61.07
30182;BME280;16990;49.056;9.240;2022-08-26T08:20:27;98429.38;;;25.81;60.20
30182;BME280;16990;49.056;9.240;2022-08-26T08:23:15;98438.19;;;25.74;60.51
30182;BME280;16990;49.056;9.240;2022-08-26T08:26:05;98434.50;;;25.70;61.17
30182;BME280;16990;49.056;9.240;2022-08-26T08:28:56;98437.16;;;25.79;60.88
30182;BME280;16990;49.056;9.240;2022-08-26T08:31:43;98431.09;;;25.85;60.95
30182;BME280;16990;49.056;9.240;2022-08-26T08:34:30;98438.66;;;26.13;59.93
30182;BME280;16990;49.056;9.240;2022-08-26T08:37:17;98430.72;;;26.36;59.21
30182;BME280;16990;49.056;9.240;2022-08-26T08:40:04;98436.09;;;26.33;59.43
30182;BME280;16990;49.056;9.240;2022-08-26T08:42:57;98433.91;;;26.63;58.76
30182;BME280;16990;49.056;9.240;2022-08-26T08:45:46;98425.25;;;26.89;57.62
30182;BME280;16990;49.056;9.240;2022-08-26T08:48:38;98430.66;;;27.01;57.53
30182;BME280;16990;49.056;9.240;2022-08-26T08:51:33;98432.69;;;27.04;56.79
30182;BME280;16990;49.056;9.240;2022-08-26T08:54:24;98426.41;;;26.76;57.37
30182;BME280;16990;49.056;9.240;2022-08-26T08:57:16;98432.50;;;26.69;56.95
30182;BME280;16990;49.056;9.240;2022-08-26T09:00:14;98430.06;;;26.80;56.90
30182;BME280;16990;49.056;9.240;2022-08-26T09:03:07;98424.22;;;26.81;57.16
30182;BME280;16990;49.056;9.240;2022-08-26T09:05:59;98427.66;;;26.78;57.07
30182;BME280;16990;49.056;9.240;2022-08-26T09:08:48;98423.03;;;26.66;56.52
30182;BME280;16990;49.056;9.240;2022-08-26T09:11:35;98429.09;;;26.60;56.92
30182;BME280;16990;49.056;9.240;2022-08-26T09:14:23;98423.53;;;26.84;56.20
30182;BME280;16990;49.056;9.240;2022-08-26T09:17:17;98424.38;;;26.72;56.08
30182;BME280;16990;49.056;9.240;2022-08-26T09:20:14;98426.41;;;27.32;54.75
30182;BME280;16990;49.056;9.240;2022-08-26T09:23:03;98419.72;;;27.17;55.07
30182;BME280;16990;49.056;9.240;2022-08-26T09:25:52;98427.72;;;26.94;55.49
30182;BME280;16990;49.056;9.240;2022-08-26T09:28:41;98417.09;;;27.21;54.72
30182;BME280;16990;49.056;9.240;2022-08-26T09:31:32;98410.09;;;27.39;54.89
30182;BME280;16990;49.056;9.240;2022-08-26T09:34:23;98420.22;;;27.07;55.46
30182;BME280;16990;49.056;9.240;2022-08-26T09:37:10;98406.94;;;27.37;54.22
30182;BME280;16990;49.056;9.240;2022-08-26T09:40:17;98411.97;;;27.35;54.86
30182;BME280;16990;49.056;9.240;2022-08-26T09:43:11;98409.59;;;27.49;54.24
30182;BME280;16990;49.056;9.240;2022-08-26T09:46:09;98399.22;;;27.27;54.33
30182;BME280;16990;49.056;9.240;2022-08-26T09:49:19;98381.09;;;27.54;53.73
30182;BME280;16990;49.056;9.240;2022-08-26T09:52:14;98361.88;;;28.05;53.20
30182;BME280;16990;49.056;9.240;2022-08-26T09:55:06;98373.38;;;28.11;52.70
30182;BME280;16990;49.056;9.240;2022-08-26T09:57:56;98381.06;;;28.02;53.23
30182;BME280;16990;49.056;9.240;2022-08-26T10:00:53;98376.31;;;28.37;52.03
30182;BME280;16990;49.056;9.240;2022-08-26T10:03:41;98370.38;;;28.16;51.93
30182;BME280;16990;49.056;9.240;2022-08-26T10:06:29;98363.97;;;27.92;52.96
30182;BME280;16990;49.056;9.240;2022-08-26T10:09:21;98365.75;;;27.85;53.62
30182;BME280;16990;49.056;9.240;2022-08-26T10:12:12;98373.63;;;27.54;54.34
30182;BME280;16990;49.056;9.240;2022-08-26T10:15:07;98375.66;;;27.73;54.82
30182;BME280;16990;49.056;9.240;2022-08-26T10:18:01;98370.78;;;27.67;53.70
30182;BME280;16990;49.056;9.240;2022-08-26T10:20:57;98367.69;;;27.36;54.76
30182;BME280;16990;49.056;9.240;2022-08-26T10:23:49;98374.22;;;27.79;53.88
30182;BME280;16990;49.056;9.240;2022-08-26T10:26:43;98385.84;;;27.73;54.29
30182;BME280;16990;49.056;9.240;2022-08-26T10:29:37;98375.56;;;27.70;53.93
30182;BME280;16990;49.056;9.240;2022-08-26T10:32:26;98380.00;;;27.90;53.23
30182;BME280;16990;49.056;9.240;2022-08-26T10:35:17;98379.28;;;27.93;50.97
30182;BME280;16990;49.056;9.240;2022-08-26T10:38:08;98377.97;;;27.87;50.62
30182;BME280;16990;49.056;9.240;2022-08-26T10:41:01;98371.53;;;27.99;50.90
30182;BME280;16990;49.056;9.240;2022-08-26T10:43:55;98381.91;;;28.06;52.19
30182;BME280;16990;49.056;9.240;2022-08-26T10:46:47;98378.47;;;28.09;52.13
30182;BME280;16990;49.056;9.240;2022-08-26T10:49:36;98376.81;;;28.24;51.44
30182;BME280;16990;49.056;9.240;2022-08-26T10:52:32;98366.91;;;28.38;51.27
30182;BME280;16990;49.056;9.240;2022-08-26T10:55:32;98356.09;;;28.46;50.25
30182;BME280;16990;49.056;9.240;2022-08-26T10:58:27;98354.28;;;28.53;49.73
30182;BME280;16990;49.056;9.240;2022-08-26T11:01:21;98354.66;;;28.52;50.02
30182;BME280;16990;49.056;9.240;2022-08-26T11:04:39;98368.97;;;28.61;50.42
30182;BME280;16990;49.056;9.240;2022-08-26T11:07:37;98371.84;;;28.49;50.07
30182;BME280;16990;49.056;9.240;2022-08-26T11:10:54;98368.66;;;28.47;50.01
30182;BME280;16990;49.056;9.240;2022-08-26T11:14:03;98362.53;;;28.18;51.04
30182;BME280;16990;49.056;9.240;2022-08-26T11:16:52;98361.59;;;28.10;52.39
30182;BME280;16990;49.056;9.240;2022-08-26T11:19:58;98351.31;;;28.07;52.12
30182;BME280;16990;49.056;9.240;2022-08-26T11:22:46;98348.78;;;27.98;52.05
30182;BME280;16990;49.056;9.240;2022-08-26T11:28:56;98334.59;;;27.96;51.51
30182;BME280;16990;49.056;9.240;2022-08-26T11:31:53;98332.13;;;27.91;51.90
30182;BME280;16990;49.056;9.240;2022-08-26T11:34:51;98334.59;;;27.96;51.74
30182;BME280;16990;49.056;9.240;2022-08-26T11:37:43;98333.56;;;27.85;51.69
30182;BME280;16990;49.056;9.240;2022-08-26T11:40:34;98321.06;;;27.88;51.94
30182;BME280;16990;49.056;9.240;2022-08-26T11:43:24;98317.09;;;27.85;51.92
30182;BME280;16990;49.056;9.240;2022-08-26T11:46:22;98322.59;;;27.85;51.66
30182;BME280;16990;49.056;9.240;2022-08-26T11:49:10;98315.47;;;27.84;51.31
30182;BME280;16990;49.056;9.240;2022-08-26T11:52:12;98321.66;;;27.81;51.11
30182;BME280;16990;49.056;9.240;2022-08-26T11:55:02;98322.66;;;27.89;50.83
30182;BME280;16990;49.056;9.240;2022-08-26T11:57:53;98337.91;;;27.86;50.79
30182;BME280;16990;49.056;9.240;2022-08-26T12:00:49;98344.00;;;27.95;50.18
30182;BME280;16990;49.056;9.240;2022-08-26T12:03:40;98345.31;;;28.02;49.86
30182;BME280;16990;49.056;9.240;2022-08-26T12:06:33;98346.56;;;28.04;49.93
30182;BME280;16990;49.056;9.240;2022-08-26T12:09:22;98350.59;;;28.10;49.33
30182;BME280;16990;49.056;9.240;2022-08-26T12:12:13;98337.81;;;28.18;48.43
30182;BME280;16990;49.056;9.240;2022-08-26T12:15:05;98328.63;;;28.30;48.49
30182;BME280;16990;49.056;9.240;2022-08-26T12:17:52;98310.25;;;28.34;49.27
30182;BME280;16990;49.056;9.240;2022-08-26T12:20:40;98319.25;;;28.50;49.60
30182;BME280;16990;49.056;9.240;2022-08-26T12:23:41;98314.81;;;28.65;49.15
30182;BME280;16990;49.056;9.240;2022-08-26T12:26:30;98308.13;;;28.86;49.46
30182;BME280;16990;49.056;9.240;2022-08-26T12:29:23;98309.03;;;28.51;48.61
30182;BME280;16990;49.056;9.240;2022-08-26T12:32:14;98306.00;;;28.56;48.28
30182;BME280;16990;49.056;9.240;2022-08-26T12:35:03;98313.09;;;28.57;48.53
30182;BME280;16990;49.056;9.240;2022-08-26T12:37:53;98324.06;;;28.18;49.65
30182;BME280;16990;49.056;9.240;2022-08-26T12:40:42;98318.44;;;28.30;50.02
30182;BME280;16990;49.056;9.240;2022-08-26T12:43:38;98320.66;;;28.44;49.30
30182;BME280;16990;49.056;9.240;2022-08-26T12:46:27;98323.28;;;28.56;47.95
30182;BME280;16990;49.056;9.240;2022-08-26T12:49:16;98322.91;;;28.77;47.34
30182;BME280;16990;49.056;9.240;2022-08-26T12:52:05;98312.34;;;28.79;47.07
30182;BME280;16990;49.056;9.240;2022-08-26T12:54:54;98294.31;;;29.05;45.42
30182;BME280;16990;49.056;9.240;2022-08-26T12:57:44;98289.34;;;29.37;44.78
30182;BME280;16990;49.056;9.240;2022-08-26T13:00:34;98296.72;;;29.30;45.14
30182;BME280;16990;49.056;9.240;2022-08-26T13:03:41;98289.13;;;29.23;45.25
30182;BME280;16990;49.056;9.240;2022-08-26T13:06:29;98272.25;;;29.51;44.86
30182;BME280;16990;49.056;9.240;2022-08-26T13:09:28;98263.03;;;29.40;44.22
30182;BME280;16990;49.056;9.240;2022-08-26T13:12:29;98273.47;;;29.54;44.29
30182;BME280;16990;49.056;9.240;2022-08-26T13:15:16;98262.78;;;29.75;44.00
30182;BME280;16990;49.056;9.240;2022-08-26T13:18:04;98267.88;;;29.73;43.33
30182;BME280;16990;49.056;9.240;2022-08-26T13:20:51;98264.00;;;29.78;43.79
30182;BME280;16990;49.056;9.240;2022-08-26T13:23:38;98247.91;;;30.14;43.10
30182;BME280;16990;49.056;9.240;2022-08-26T13:26:24;98248.41;;;29.89;42.96
30182;BME280;16990;49.056;9.240;2022-08-26T13:29:13;98239.56;;;29.76;43.18
30182;BME280;16990;49.056;9.240;2022-08-26T13:32:02;98238.13;;;29.59;43.38
30182;BME280;16990;49.056;9.240;2022-08-26T13:34:50;98230.69;;;29.63;43.40
30182;BME280;16990;49.056;9.240;2022-08-26T13:37:36;98228.34;;;29.62;43.35
30182;BME280;16990;49.056;9.240;2022-08-26T13:40:23;98229.75;;;29.52;43.40
30182;BME280;16990;49.056;9.240;2022-08-26T13:43:11;98226.06;;;29.41;43.75
30182;BME280;16990;49.056;9.240;2022-08-26T13:45:59;98219.34;;;29.38;43.20
30182;BME280;16990;49.056;9.240;2022-08-26T13:48:47;98225.06;;;29.53;42.95
30182;BME280;16990;49.056;9.240;2022-08-26T13:51:34;98218.44;;;29.31;43.37
30182;BME280;16990;49.056;9.240;2022-08-26T13:54:22;98222.03;;;29.08;43.78
30182;BME280;16990;49.056;9.240;2022-08-26T13:57:09;98225.44;;;29.24;43.53
30182;BME280;16990;49.056;9.240;2022-08-26T13:59:56;98220.34;;;29.53;42.62
30182;BME280;16990;49.056;9.240;2022-08-26T14:02:46;98211.56;;;29.17;43.49
30182;BME280;16990;49.056;9.240;2022-08-26T14:05:33;98209.88;;;29.36;43.37
30182;BME280;16990;49.056;9.240;2022-08-26T14:08:21;98204.47;;;29.43;43.08
30182;BME280;16990;49.056;9.240;2022-08-26T14:11:08;98214.72;;;29.46;42.00
30182;BME280;16990;49.056;9.240;2022-08-26T14:13:55;98212.53;;;29.29;42.83
30182;BME280;16990;49.056;9.240;2022-08-26T14:16:42;98209.44;;;29.34;42.29
30182;BME280;16990;49.056;9.240;2022-08-26T14:19:30;98207.03;;;29.29;41.53
30182;BME280;16990;49.056;9.240;2022-08-26T14:22:19;98204.97;;;29.25;41.67
30182;BME280;16990;49.056;9.240;2022-08-26T14:25:09;98207.41;;;29.31;41.27
30182;BME280;16990;49.056;9.240;2022-08-26T14:27:56;98201.91;;;29.31;40.72
30182;BME280;16990;49.056;9.240;2022-08-26T14:30:47;98194.84;;;29.30;40.67
30182;BME280;16990;49.056;9.240;2022-08-26T14:33:37;98190.97;;;29.34;39.74
30182;BME280;16990;49.056;9.240;2022-08-26T14:36:25;98187.31;;;29.26;39.98
30182;BME280;16990;49.056;9.240;2022-08-26T14:39:16;98185.59;;;29.45;39.28
30182;BME280;16990;49.056;9.240;2022-08-26T14:42:03;98174.25;;;29.77;38.84
30182;BME280;16990;49.056;9.240;2022-08-26T14:44:53;98183.03;;;29.89;38.04
30182;BME280;16990;49.056;9.240;2022-08-26T14:47:41;98180.16;;;30.13;37.25
30182;BME280;16990;49.056;9.240;2022-08-26T14:50:28;98165.19;;;30.14;36.85
30182;BME280;16990;49.056;9.240;2022-08-26T14:53:16;98149.75;;;30.05;36.20
30182;BME280;16990;49.056;9.240;2022-08-26T14:56:37;98167.38;;;30.31;35.98
30182;BME280;16990;49.056;9.240;2022-08-26T14:59:25;98170.75;;;30.55;35.21
30182;BME280;16990;49.056;9.240;2022-08-26T15:02:13;98178.28;;;30.24;33.94